Time;durP1;ratioP1;P1;durP2;ratioP2;P2;SDS_P1;SDS_P2;PMS_P1;PMS_P2;Temp;Humidity;BMP_temperature;BMP_pressure;BME280_temperature;BME280_humidity;BME280_pressure;Samples;Min_cycle;Max_cycle;Signal;HPM_P1;HPM_P2
2023/05/16 00:00:42;;;;;;;9.40;9.10;;;11.20;99.90;;;;;;6231307;23;20219;-82
2023/05/16 00:03:12;;;;;;;9.23;8.93;;;11.10;99.90;;;;;;6231214;23;20303;-80
2023/05/16 00:05:41;;;;;;;9.40;9.10;;;11.10;99.90;;;;;;6236113;22;20206;-80
2023/05/16 00:08:13;;;;;;;9.43;9.13;;;11.10;99.90;;;;;;6236017;23;20191;-80
2023/05/16 00:10:44;;;;;;;9.23;8.93;;;11.10;99.90;;;;;;6233794;23;20195;-80
2023/05/16 00:13:12;;;;;;;9.07;8.77;;;11.10;99.90;;;;;;6232220;23;20195;-80
2023/05/16 00:15:40;;;;;;;9.27;8.97;;;11.10;99.90;;;;;;6238604;23;20195;-80
2023/05/16 00:18:13;;;;;;;9.20;8.90;;;11.20;99.90;;;;;;6235468;23;20222;-79
2023/05/16 00:20:41;;;;;;;9.10;8.80;;;11.10;99.90;;;;;;6234407;23;20207;-80
2023/05/16 00:23:08;;;;;;;9.00;8.70;;;11.10;99.90;;;;;;6233157;23;20222;-80
2023/05/16 00:25:37;;;;;;;8.67;8.47;;;11.10;99.90;;;;;;6232383;23;20230;-80
2023/05/16 00:28:07;;;;;;;9.07;8.77;;;11.10;99.90;;;;;;6230327;23;20233;-80
2023/05/16 00:30:37;;;;;;;8.90;8.60;;;11.10;99.90;;;;;;6232661;23;20960;-80
2023/05/16 00:33:06;;;;;;;8.60;8.40;;;11.10;99.90;;;;;;6231482;23;20187;-80
2023/05/16 00:35:36;;;;;;;8.87;8.63;;;11.10;99.90;;;;;;6230455;23;20210;-81
2023/05/16 00:38:06;;;;;;;9.20;8.90;;;11.20;99.90;;;;;;6231171;23;20214;-80
2023/05/16 00:40:35;;;;;;;9.10;8.80;;;11.10;99.90;;;;;;6231073;23;20249;-80
2023/05/16 00:43:03;;;;;;;9.10;8.80;;;11.10;99.90;;;;;;6231115;23;20270;-80
2023/05/16 00:45:35;;;;;;;9.20;8.90;;;11.10;99.90;;;;;;6230412;23;20205;-80
2023/05/16 00:48:03;;;;;;;8.80;8.60;;;11.10;99.90;;;;;;6232103;23;20259;-80
2023/05/16 00:50:33;;;;;;;9.00;8.70;;;11.10;99.90;;;;;;6232390;23;20197;-81
2023/05/16 00:53:02;;;;;;;8.70;8.50;;;11.10;99.90;;;;;;6231643;23;20265;-80
2023/05/16 00:55:31;;;;;;;9.00;8.70;;;11.10;99.90;;;;;;6233322;23;20205;-80
2023/05/16 00:58:01;;;;;;;8.50;8.30;;;11.10;99.90;;;;;;6231985;23;20203;-81
2023/05/16 01:00:30;;;;;;;8.57;8.37;;;11.10;99.90;;;;;;6235554;23;20215;-79
2023/05/16 01:03:09;;;;;;;8.60;8.40;;;11.10;99.90;;;;;;6238050;23;20199;-80
2023/05/16 01:05:39;;;;;;;8.63;8.43;;;11.00;99.90;;;;;;6237783;23;20379;-80
2023/05/16 01:08:08;;;;;;;8.30;8.10;;;11.00;99.90;;;;;;6238518;23;20191;-80
2023/05/16 01:10:46;;;;;;;8.57;8.37;;;11.00;99.90;;;;;;6231270;23;20258;-80
2023/05/16 01:13:26;;;;;;;8.70;8.50;;;11.00;99.90;;;;;;6232078;23;20247;-80
2023/05/16 01:16:03;;;;;;;8.80;8.60;;;11.00;99.90;;;;;;6238879;22;20222;-80
2023/05/16 01:18:43;;;;;;;8.80;8.60;;;10.90;99.90;;;;;;6238869;23;20202;-81
2023/05/16 01:21:20;;;;;;;8.70;8.50;;;10.80;99.90;;;;;;6234162;23;20624;-80
2023/05/16 01:24:00;;;;;;;8.33;8.13;;;10.70;99.90;;;;;;6233721;23;20265;-81
2023/05/16 01:26:30;;;;;;;8.43;8.23;;;10.60;99.90;;;;;;6233268;23;20330;-80
2023/05/16 01:28:58;;;;;;;8.17;7.97;;;10.60;99.90;;;;;;6232145;23;20191;-80
2023/05/16 01:31:25;;;;;;;8.37;8.17;;;10.60;99.90;;;;;;6234890;22;20246;-80
2023/05/16 01:33:54;;;;;;;8.53;8.33;;;10.60;99.90;;;;;;6232284;23;20281;-80
2023/05/16 01:36:34;;;;;;;8.20;8.00;;;10.60;99.90;;;;;;6232523;23;20242;-80
2023/05/16 01:39:09;;;;;;;8.40;8.20;;;10.60;99.90;;;;;;6233247;23;20274;-81
2023/05/16 01:41:56;;;;;;;9.10;8.80;;;10.70;99.90;;;;;;6233348;23;20218;-80
2023/05/16 01:44:37;;;;;;;8.77;8.57;;;10.70;99.90;;;;;;6232012;23;20225;-80
2023/05/16 01:47:14;;;;;;;8.70;8.50;;;10.60;99.90;;;;;;6232801;23;20183;-80
2023/05/16 01:49:53;;;;;;;8.83;8.60;;;10.60;99.90;;;;;;6231395;23;20213;-80
2023/05/16 01:52:32;;;;;;;9.20;8.90;;;10.60;99.90;;;;;;6231526;23;20274;-81
2023/05/16 01:55:01;;;;;;;8.93;8.70;;;10.60;99.90;;;;;;6232387;23;20201;-80
2023/05/16 01:57:30;;;;;;;9.40;9.10;;;10.60;99.90;;;;;;6232680;23;20197;-80
2023/05/16 01:59:59;;;;;;;9.33;9.03;;;10.60;99.90;;;;;;6238013;22;20199;-81
2023/05/16 02:02:29;;;;;;;9.23;8.93;;;10.60;99.90;;;;;;6230872;23;20199;-80
2023/05/16 02:04:59;;;;;;;8.77;8.57;;;10.50;99.90;;;;;;6232464;22;20223;-81
2023/05/16 02:07:27;;;;;;;8.70;8.50;;;10.60;99.90;;;;;;6232097;23;20219;-81
2023/05/16 02:10:01;;;;;;;9.07;8.77;;;10.60;99.90;;;;;;6231165;23;20237;-79
2023/05/16 02:12:31;;;;;;;9.30;9.00;;;10.70;99.90;;;;;;6230775;23;20194;-80
2023/05/16 02:14:58;;;;;;;9.20;8.90;;;10.70;99.90;;;;;;6231197;23;20210;-80
2023/05/16 02:17:27;;;;;;;9.10;8.80;;;10.70;99.90;;;;;;6231863;23;20201;-81
2023/05/16 02:19:56;;;;;;;8.80;8.60;;;10.70;99.90;;;;;;6233825;23;20219;-81
2023/05/16 02:22:24;;;;;;;9.10;8.80;;;10.80;99.90;;;;;;6232883;23;20297;-79
2023/05/16 02:24:55;;;;;;;9.03;8.73;;;10.80;99.90;;;;;;6232354;23;20199;-81
2023/05/16 02:27:24;;;;;;;9.20;8.90;;;10.80;99.90;;;;;;6233612;23;20249;-80
2023/05/16 02:29:54;;;;;;;8.97;8.67;;;10.70;99.90;;;;;;6232950;22;20297;-79
2023/05/16 02:32:23;;;;;;;8.90;8.70;;;10.80;99.90;;;;;;6232292;23;20210;-80
2023/05/16 02:34:52;;;;;;;9.20;8.90;;;10.80;99.90;;;;;;6231941;23;20226;-80
2023/05/16 02:37:21;;;;;;;8.63;8.43;;;10.80;99.90;;;;;;6231918;23;20247;-82
2023/05/16 02:39:48;;;;;;;8.57;8.37;;;10.80;99.90;;;;;;6232215;23;20207;-80
2023/05/16 02:42:16;;;;;;;8.93;8.67;;;10.80;99.90;;;;;;6232486;22;20202;-80
2023/05/16 02:44:44;;;;;;;9.10;8.80;;;10.80;99.90;;;;;;6232083;22;20211;-80
2023/05/16 02:47:14;;;;;;;8.43;8.23;;;10.80;99.90;;;;;;6232394;23;20291;-81
2023/05/16 02:49:42;;;;;;;8.57;8.37;;;10.80;99.90;;;;;;6237672;23;20246;-80
2023/05/16 02:52:11;;;;;;;8.77;8.57;;;10.80;99.90;;;;;;6236204;23;20194;-81
2023/05/16 02:54:40;;;;;;;8.70;8.50;;;10.70;99.90;;;;;;6235471;23;20265;-81
2023/05/16 02:57:11;;;;;;;8.67;8.47;;;10.80;99.90;;;;;;6234562;22;20201;-79
2023/05/16 02:59:39;;;;;;;8.53;8.33;;;10.70;99.90;;;;;;6233606;23;20203;-80
2023/05/16 03:02:08;;;;;;;8.60;8.40;;;10.70;99.90;;;;;;6231911;23;20210;-81
2023/05/16 03:04:38;;;;;;;8.60;8.40;;;10.70;99.90;;;;;;6231982;23;20197;-81
2023/05/16 03:07:08;;;;;;;8.80;8.60;;;10.60;99.90;;;;;;6232178;23;20226;-81
2023/05/16 03:09:37;;;;;;;8.53;8.33;;;10.60;99.90;;;;;;6232608;23;20230;-80
2023/05/16 03:12:06;;;;;;;8.50;8.30;;;10.60;99.90;;;;;;6232028;23;20238;-81
2023/05/16 03:14:35;;;;;;;8.40;8.20;;;10.60;99.90;;;;;;6231680;23;20259;-80
2023/05/16 03:17:05;;;;;;;8.30;8.10;;;10.60;99.90;;;;;;6232663;23;20222;-80
2023/05/16 03:19:34;;;;;;;9.50;9.20;;;10.60;99.90;;;;;;6231328;23;20206;-80
2023/05/16 03:22:06;;;;;;;9.87;9.57;;;10.60;99.90;;;;;;6231433;23;20191;-80
2023/05/16 03:24:34;;;;;;;9.90;9.60;;;10.50;99.90;;;;;;6232223;23;20199;-81
2023/05/16 03:27:03;;;;;;;9.73;9.43;;;10.50;99.90;;;;;;6233298;23;20258;-80
2023/05/16 03:29:32;;;;;;;9.67;9.37;;;10.50;99.90;;;;;;6231335;23;20207;-81
2023/05/16 03:32:02;;;;;;;9.60;9.30;;;10.50;99.90;;;;;;6232455;23;20199;-81
2023/05/16 03:34:31;;;;;;;10.00;9.70;;;10.50;99.90;;;;;;6231761;23;20250;-80
2023/05/16 03:37:01;;;;;;;9.60;9.30;;;10.50;99.90;;;;;;6231748;22;20203;-81
2023/05/16 03:39:32;;;;;;;9.67;9.37;;;10.50;99.90;;;;;;6230910;23;20226;-80
2023/05/16 03:42:00;;;;;;;9.70;9.40;;;10.60;99.90;;;;;;6235336;23;20251;-80
2023/05/16 03:44:29;;;;;;;10.27;9.97;;;10.60;99.90;;;;;;6249761;22;20206;-81
2023/05/16 03:46:58;;;;;;;9.90;9.60;;;10.60;99.90;;;;;;6250030;22;20179;-81
2023/05/16 03:49:27;;;;;;;10.00;9.70;;;10.60;99.90;;;;;;6249661;22;20190;-81
2023/05/16 03:51:56;;;;;;;9.87;9.57;;;10.60;99.90;;;;;;6249794;22;20211;-80
2023/05/16 03:54:29;;;;;;;9.90;9.60;;;10.60;99.90;;;;;;6246388;22;20198;-79
2023/05/16 03:56:59;;;;;;;9.60;9.30;;;10.60;99.90;;;;;;6234466;23;20191;-80
2023/05/16 03:59:26;;;;;;;10.13;9.83;;;10.60;99.90;;;;;;6233344;23;20199;-80
2023/05/16 04:01:55;;;;;;;9.20;8.90;;;10.50;99.90;;;;;;6233487;23;20218;-79
2023/05/16 04:04:24;;;;;;;9.20;8.90;;;10.40;99.90;;;;;;6232640;23;20211;-80
2023/05/16 04:06:54;;;;;;;9.40;9.10;;;10.40;99.90;;;;;;6232360;23;20203;-80
2023/05/16 04:09:25;;;;;;;10.13;9.83;;;10.40;99.90;;;;;;6231744;23;21020;-80
2023/05/16 04:11:55;;;;;;;9.30;9.00;;;10.40;99.90;;;;;;6231856;23;20274;-80
2023/05/16 04:14:24;;;;;;;9.27;8.97;;;10.50;99.90;;;;;;6232699;23;20218;-80
2023/05/16 04:16:53;;;;;;;9.93;9.63;;;10.50;99.90;;;;;;6236942;23;20203;-80
2023/05/16 04:19:23;;;;;;;10.10;9.80;;;10.50;99.90;;;;;;6236538;22;20209;-80
2023/05/16 04:21:51;;;;;;;10.00;9.70;;;10.60;99.90;;;;;;6235014;23;20191;-79
2023/05/16 04:24:25;;;;;;;10.30;10.00;;;10.50;99.90;;;;;;6240372;23;20203;-79
2023/05/16 04:26:53;;;;;;;10.20;9.90;;;10.50;99.90;;;;;;6243313;23;20207;-80
2023/05/16 04:29:20;;;;;;;10.50;10.20;;;10.60;99.90;;;;;;6240801;23;20202;-79
2023/05/16 04:31:51;;;;;;;10.00;9.70;;;10.60;99.90;;;;;;6234038;23;20270;-80
2023/05/16 04:34:21;;;;;;;9.97;9.67;;;10.70;99.90;;;;;;6238731;22;20191;-78
2023/05/16 04:36:49;;;;;;;9.23;8.93;;;10.70;99.90;;;;;;6230607;22;20195;-79
2023/05/16 04:39:19;;;;;;;9.10;8.80;;;10.70;99.90;;;;;;6231064;23;20214;-80
2023/05/16 04:41:48;;;;;;;9.13;8.83;;;10.70;99.90;;;;;;6232795;23;20203;-79
2023/05/16 04:44:17;;;;;;;8.90;8.63;;;10.70;99.90;;;;;;6233385;23;20207;-80
2023/05/16 04:46:46;;;;;;;9.10;8.80;;;10.80;99.90;;;;;;6232531;23;20241;-80
2023/05/16 04:49:23;;;;;;;8.93;8.63;;;10.80;99.90;;;;;;6231717;23;20198;-80
2023/05/16 04:51:54;;;;;;;9.10;8.80;;;10.80;99.90;;;;;;6232458;23;20194;-79
2023/05/16 04:54:25;;;;;;;9.20;8.90;;;10.80;99.90;;;;;;6232191;23;20226;-80
2023/05/16 04:56:53;;;;;;;9.10;8.80;;;10.80;99.90;;;;;;6233570;23;20289;-80
2023/05/16 04:59:23;;;;;;;9.20;8.90;;;10.80;99.90;;;;;;6233156;23;20277;-80
2023/05/16 05:01:52;;;;;;;9.20;8.90;;;10.80;99.90;;;;;;6232433;23;20215;-80
2023/05/16 05:04:27;;;;;;;9.10;8.80;;;10.80;99.90;;;;;;6232191;23;20229;-80
2023/05/16 05:06:54;;;;;;;9.20;8.90;;;10.80;99.90;;;;;;6231556;23;20222;-80
2023/05/16 05:09:22;;;;;;;9.27;8.97;;;10.90;99.90;;;;;;6235122;23;20250;-80
2023/05/16 05:11:51;;;;;;;9.00;8.70;;;11.00;99.90;;;;;;6233517;23;20206;-82
2023/05/16 05:14:20;;;;;;;9.60;9.30;;;11.00;99.90;;;;;;6232737;23;20392;-82
2023/05/16 05:16:48;;;;;;;9.43;9.13;;;11.20;99.90;;;;;;6233838;23;20195;-81
2023/05/16 05:19:17;;;;;;;9.60;9.30;;;11.30;99.90;;;;;;6233677;23;20226;-82
2023/05/16 05:21:54;;;;;;;9.33;9.03;;;11.40;99.90;;;;;;6236568;23;20206;-83
2023/05/16 05:24:26;;;;;;;9.50;9.20;;;11.50;99.90;;;;;;6243744;23;20174;-82
2023/05/16 05:26:55;;;;;;;9.53;9.23;;;11.50;99.90;;;;;;6237500;23;20215;-83
2023/05/16 05:29:26;;;;;;;9.10;8.80;;;11.50;99.90;;;;;;6236632;23;20199;-82
2023/05/16 05:31:54;;;;;;;9.50;9.20;;;11.50;99.90;;;;;;6237018;23;20183;-82
2023/05/16 06:07:50;;;;;;;9.53;9.23;;;12.00;99.90;;;;;;6227327;23;20217;-88
2023/05/16 06:10:44;;;;;;;9.83;9.53;;;12.00;99.90;;;;;;6229782;23;20203;-87
2023/05/16 06:13:16;;;;;;;9.90;9.60;;;12.00;99.90;;;;;;6235579;23;20200;-87
2023/05/16 06:16:04;;;;;;;9.67;9.37;;;12.10;99.90;;;;;;6231268;23;20258;-87
2023/05/16 06:18:48;;;;;;;9.90;9.60;;;12.20;99.90;;;;;;6231278;23;20198;-87
2023/05/16 06:21:27;;;;;;;9.90;9.60;;;12.30;99.90;;;;;;6230796;23;20282;-87
2023/05/16 06:23:56;;;;;;;9.90;9.60;;;12.40;99.90;;;;;;6230532;23;20194;-87
2023/05/16 06:26:48;;;;;;;9.80;9.50;;;12.50;99.90;;;;;;6230138;23;20232;-87
2023/05/16 06:29:24;;;;;;;10.03;9.73;;;12.50;99.90;;;;;;6235005;22;20206;-87
2023/05/16 06:35:10;;;;;;;9.90;9.60;;;12.40;99.90;;;;;;6230165;23;20213;-86
2023/05/16 06:38:43;;;;;;;9.97;9.67;;;12.50;99.90;;;;;;6232060;23;20203;-87
2023/05/16 06:44:11;;;;;;;10.10;9.80;;;12.80;99.90;;;;;;6226043;23;20218;-88
2023/05/16 06:46:42;;;;;;;10.30;10.00;;;12.90;99.90;;;;;;6234616;23;20197;-87
2023/05/16 06:49:22;;;;;;;10.10;9.80;;;13.00;99.90;;;;;;6233086;23;20202;-88
2023/05/16 06:51:58;;;;;;;10.23;9.93;;;13.00;99.90;;;;;;6231830;23;20203;-87
2023/05/16 06:54:27;;;;;;;10.47;10.17;;;13.10;99.90;;;;;;6231828;23;20205;-88
2023/05/16 07:00:23;;;;;;;10.33;10.03;;;13.40;99.90;;;;;;6226770;23;20195;-88
2023/05/16 07:07:08;;;;;;;10.40;10.10;;;13.70;99.90;;;;;;6078247;23;21025;-89
2023/05/16 07:10:27;;;;;;;10.53;10.23;;;13.80;99.90;;;;;;6188351;22;20236;-87
2023/05/16 07:31:11;;;;;;;10.77;10.48;;;14.20;99.90;;;;;;5962181;23;20199;-87
2023/05/16 07:34:12;;;;;;;10.80;10.50;;;14.20;99.90;;;;;;6231236;23;20203;-87
2023/05/16 07:47:54;;;;;;;;;;;;;;;;;;;;;
2023/05/16 07:54:57;;;;;;;11.00;10.70;;;14.60;99.90;;;;;;6065570;23;20280;-88
2023/05/16 07:57:35;;;;;;;11.02;10.73;;;14.70;99.90;;;;;;6178057;23;20200;-87
2023/05/16 08:00:13;;;;;;;10.88;10.57;;;14.90;99.90;;;;;;6201430;23;20282;-88
2023/05/16 08:12:02;;;;;;;;;;;;;;;;;;;;;
2023/05/16 08:14:35;;;;;;;10.77;10.48;;;15.20;99.90;;;;;;6202648;23;20230;-87
2023/05/16 08:17:16;;;;;;;10.88;10.57;;;15.30;99.90;;;;;;6202176;22;20196;-87
2023/05/16 08:19:51;;;;;;;10.80;10.50;;;15.30;99.90;;;;;;6201366;23;20195;-89
2023/05/16 08:22:30;;;;;;;10.52;10.23;;;15.40;99.90;;;;;;6202284;23;20206;-85
2023/05/16 08:24:59;;;;;;;10.45;10.15;;;15.40;99.90;;;;;;6200053;23;20207;-78
2023/05/16 08:27:29;;;;;;;10.50;10.20;;;15.50;99.90;;;;;;6201018;23;20219;-77
2023/05/16 08:29:58;;;;;;;10.43;10.13;;;15.60;99.90;;;;;;6214425;22;20195;-78
2023/05/16 08:32:28;;;;;;;10.45;10.15;;;15.80;99.90;;;;;;6197964;23;20204;-79
2023/05/16 08:34:57;;;;;;;10.27;9.98;;;16.10;99.90;;;;;;6206256;23;20267;-79
2023/05/16 08:37:36;;;;;;;10.05;9.75;;;16.40;99.90;;;;;;6202623;23;20199;-78
2023/05/16 08:40:07;;;;;;;10.40;10.10;;;16.50;99.90;;;;;;6206184;23;20199;-84
2023/05/16 08:42:36;;;;;;;10.15;9.85;;;16.40;99.90;;;;;;6206081;23;20207;-84
2023/05/16 08:45:06;;;;;;;10.20;9.90;;;16.40;99.90;;;;;;6206570;23;20211;-84
2023/05/16 08:47:35;;;;;;;10.07;9.77;;;16.60;99.90;;;;;;6204325;23;20219;-84
2023/05/16 08:50:05;;;;;;;10.52;10.23;;;16.90;99.90;;;;;;6203404;23;20207;-84
2023/05/16 08:52:44;;;;;;;11.00;10.70;;;17.00;99.90;;;;;;6202802;23;20195;-84
2023/05/16 08:55:12;;;;;;;10.77;10.48;;;17.20;99.90;;;;;;6202870;23;20191;-84
2023/05/16 08:57:41;;;;;;;11.00;10.70;;;17.40;99.90;;;;;;6203710;23;20198;-84
2023/05/16 09:03:07;;;;;;;10.80;10.50;;;17.20;99.90;;;;;;6202261;23;20195;-82
2023/05/16 09:05:43;;;;;;;10.70;10.40;;;17.00;99.90;;;;;;6204033;23;20195;-84
2023/05/16 09:08:41;;;;;;;10.57;10.27;;;17.30;99.90;;;;;;6204097;23;20250;-85
2023/05/16 09:11:31;;;;;;;10.35;10.05;;;17.50;99.90;;;;;;6203774;23;20219;-85
2023/05/16 09:14:20;;;;;;;;;;;;;;;;;;;;;
2023/05/16 09:17:34;;;;;;;10.57;10.27;;;17.50;99.90;;;;;;6203363;23;20354;-85
2023/05/16 09:20:45;;;;;;;10.77;10.48;;;17.70;99.90;;;;;;6202427;23;20203;-85
2023/05/16 09:26:41;;;;;;;10.60;10.30;;;17.10;99.90;;;;;;6202691;22;20202;-85
2023/05/16 09:54:42;;;;;;;10.52;10.23;;;17.00;99.90;;;;;;6096555;23;20260;-85
2023/05/16 10:07:33;;;;;;;10.60;10.30;;;16.50;99.90;;;;;;6147524;23;20211;-85
2023/05/16 10:10:22;;;;;;;;;;;;;;;;;;;;;
2023/05/16 10:19:21;;;;;;;10.50;10.20;;;17.00;99.90;;;;;;6172645;23;20239;-85
2023/05/16 10:22:19;;;;;;;10.32;10.02;;;17.40;99.90;;;;;;6175103;23;20204;-85
2023/05/16 10:25:02;;;;;;;10.25;9.95;;;17.90;99.90;;;;;;6174165;23;20214;-85
2023/05/16 10:30:36;;;;;;;10.77;10.48;;;17.40;99.90;;;;;;6176428;23;20256;-85
2023/05/16 10:33:39;;;;;;;10.70;10.40;;;17.90;99.90;;;;;;6174217;23;20199;-85
2023/05/16 10:36:45;;;;;;;10.27;9.98;;;18.40;99.90;;;;;;6173273;23;20200;-85
2023/05/16 10:42:16;;;;;;;10.27;9.98;;;19.00;99.90;;;;;;6188440;23;20198;-84
2023/05/16 10:44:59;;;;;;;10.18;9.88;;;18.90;99.90;;;;;;6183687;23;20263;-84
2023/05/16 10:47:41;;;;;;;10.55;10.25;;;18.60;99.90;;;;;;6172995;23;20228;-85
2023/05/16 10:53:35;;;;;;;10.38;10.07;;;19.10;99.90;;;;;;6168744;23;20200;-85
2023/05/16 10:59:24;;;;;;;;;;;;;;;;;;;;;
2023/05/16 11:03:22;;;;;;;;;;;;;;;;;;;;;
2023/05/16 11:06:58;;;;;;;10.20;9.90;;;19.00;99.90;;;;;;6173000;23;20200;-85
2023/05/16 11:10:14;;;;;;;10.18;9.88;;;18.50;99.90;;;;;;6176015;23;20210;-85
2023/05/16 11:13:41;;;;;;;;;;;;;;;;;;;;;
2023/05/16 11:16:50;;;;;;;10.18;9.88;;;18.40;99.90;;;;;;6177217;23;20211;-85
2023/05/16 11:20:15;;;;;;;10.10;9.80;;;18.60;99.90;;;;;;6177525;23;20248;-84
2023/05/16 11:26:49;;;;;;;10.45;10.15;;;18.80;99.90;;;;;;6188103;23;20243;-84
2023/05/16 11:33:04;;;;;;;;;;;;;;;;;;;;;
2023/05/16 11:35:32;;;;;;;10.38;10.07;;;18.60;99.90;;;;;;6189076;23;20190;-80
2023/05/16 11:38:00;;;;;;;10.23;9.93;;;18.50;99.90;;;;;;6249185;22;20210;-83
2023/05/16 11:40:27;;;;;;;10.30;10.00;;;18.40;99.90;;;;;;6249198;22;20188;-82
2023/05/16 11:43:07;;;;;;;10.20;9.90;;;18.60;99.90;;;;;;6249361;22;20214;-83
2023/05/16 11:45:35;;;;;;;10.00;9.70;;;19.00;99.90;;;;;;6249766;22;20248;-81
2023/05/16 11:48:07;;;;;;;10.10;9.80;;;18.90;99.90;;;;;;6249190;22;20168;-83
2023/05/16 11:50:35;;;;;;;10.20;9.90;;;18.60;99.90;;;;;;6243960;22;20191;-81
2023/05/16 11:53:04;;;;;;;9.77;9.48;;;18.60;99.90;;;;;;6236107;23;20191;-81
2023/05/16 11:55:35;;;;;;;10.00;9.70;;;18.40;99.90;;;;;;6235178;23;20211;-82
2023/05/16 11:58:05;;;;;;;10.10;9.80;;;18.20;99.90;;;;;;6235174;23;20187;-81
2023/05/16 12:00:33;;;;;;;9.88;9.57;;;17.70;99.90;;;;;;6234042;23;20199;-81
2023/05/16 12:03:04;;;;;;;10.18;9.88;;;17.50;99.90;;;;;;6233912;22;20199;-82
2023/05/16 12:05:32;;;;;;;10.10;9.80;;;17.40;99.90;;;;;;6234203;23;20236;-82
2023/05/16 12:08:04;;;;;;;10.10;9.80;;;17.10;99.90;;;;;;6234230;23;20194;-82
2023/05/16 12:10:33;;;;;;;10.23;9.93;;;16.90;99.90;;;;;;6233857;23;20222;-81
2023/05/16 12:13:04;;;;;;;10.20;9.90;;;16.80;99.90;;;;;;6233690;22;20195;-80
2023/05/16 12:15:34;;;;;;;10.20;9.90;;;16.80;99.90;;;;;;6235122;23;20199;-81
2023/05/16 12:18:02;;;;;;;9.73;9.43;;;16.80;99.90;;;;;;6232947;23;20203;-81
2023/05/16 12:20:29;;;;;;;9.88;9.57;;;17.00;99.90;;;;;;6235758;22;20274;-82
2023/05/16 12:23:01;;;;;;;9.82;9.52;;;17.10;99.90;;;;;;6235930;22;20221;-81
2023/05/16 12:25:30;;;;;;;10.07;9.77;;;17.40;99.90;;;;;;6230572;23;20258;-80
2023/05/16 12:28:00;;;;;;;9.90;9.60;;;17.70;99.90;;;;;;6230569;23;20236;-79
2023/05/16 12:30:29;;;;;;;10.00;9.70;;;17.80;99.90;;;;;;6233200;23;20195;-80
2023/05/16 12:33:02;;;;;;;9.82;9.52;;;17.60;99.90;;;;;;6229988;23;20281;-81
2023/05/16 12:35:35;;;;;;;10.15;9.85;;;17.20;99.90;;;;;;6230715;23;20258;-82
2023/05/16 12:38:06;;;;;;;10.18;9.88;;;17.20;99.90;;;;;;6230771;23;20190;-80
2023/05/16 12:40:35;;;;;;;10.30;10.00;;;17.20;99.90;;;;;;6231025;23;20199;-80
2023/05/16 12:43:03;;;;;;;10.55;10.25;;;17.40;99.90;;;;;;6231987;23;20214;-81
2023/05/16 12:45:34;;;;;;;10.45;10.15;;;17.70;99.90;;;;;;6233646;23;20231;-81
2023/05/16 12:48:12;;;;;;;10.32;10.02;;;17.90;99.90;;;;;;6235861;23;20195;-81
2023/05/16 12:50:41;;;;;;;10.25;9.95;;;18.20;99.90;;;;;;6243245;23;20250;-80
2023/05/16 12:53:19;;;;;;;10.15;9.85;;;18.30;99.90;;;;;;6238240;23;20250;-80
2023/05/16 12:55:48;;;;;;;10.20;9.90;;;18.40;99.90;;;;;;6237315;23;20245;-80
2023/05/16 12:58:18;;;;;;;10.23;9.93;;;18.40;99.90;;;;;;6235436;23;20198;-81
2023/05/16 13:00:47;;;;;;;10.10;9.80;;;18.60;99.90;;;;;;6234722;23;20191;-80
2023/05/16 13:03:27;;;;;;;10.55;10.25;;;18.50;99.90;;;;;;6234627;23;20259;-82
2023/05/16 13:05:55;;;;;;;10.45;10.15;;;18.70;99.90;;;;;;6232958;23;20214;-82
2023/05/16 13:08:24;;;;;;;10.40;10.10;;;18.50;99.90;;;;;;6233703;23;20195;-83
2023/05/16 13:10:53;;;;;;;10.23;9.93;;;18.80;99.90;;;;;;6234187;23;20247;-84
2023/05/16 13:13:24;;;;;;;10.00;9.70;;;18.90;99.90;;;;;;6233535;23;20222;-83
2023/05/16 13:15:53;;;;;;;10.30;10.00;;;18.50;99.90;;;;;;6235522;23;20203;-83
2023/05/16 13:18:23;;;;;;;10.30;10.00;;;18.30;99.90;;;;;;6242406;22;20195;-81
2023/05/16 13:20:54;;;;;;;10.25;9.95;;;17.90;99.90;;;;;;6237479;23;20245;-82
2023/05/16 13:23:22;;;;;;;10.80;10.50;;;18.10;99.90;;;;;;6235900;23;20202;-81
2023/05/16 13:25:51;;;;;;;10.65;10.35;;;18.70;99.90;;;;;;6234922;23;20203;-81
2023/05/16 13:28:19;;;;;;;10.60;10.30;;;19.00;99.90;;;;;;6234155;23;20226;-82
2023/05/16 13:30:49;;;;;;;10.30;10.00;;;19.60;99.90;;;;;;6235349;22;20643;-82
2023/05/16 13:33:18;;;;;;;10.70;10.40;;;20.00;99.90;;;;;;6233037;23;20195;-82
2023/05/16 13:35:54;;;;;;;9.90;9.60;;;20.00;99.90;;;;;;6232540;23;20206;-82
2023/05/16 13:38:27;;;;;;;10.10;9.80;;;19.80;99.90;;;;;;6233020;23;20191;-82
2023/05/16 13:40:56;;;;;;;9.95;9.65;;;19.40;99.90;;;;;;6234373;23;20195;-83
2023/05/16 13:43:25;;;;;;;10.10;9.80;;;19.40;99.90;;;;;;6234823;23;20263;-83
2023/05/16 13:45:55;;;;;;;10.10;9.80;;;19.50;99.90;;;;;;6233886;23;20199;-82
2023/05/16 13:48:23;;;;;;;9.98;9.68;;;19.20;99.90;;;;;;6233668;23;20202;-82
2023/05/16 13:50:54;;;;;;;9.50;9.20;;;18.80;99.90;;;;;;6232300;23;20199;-81
2023/05/16 13:53:23;;;;;;;9.52;9.23;;;18.40;99.90;;;;;;6232018;23;20277;-83
2023/05/16 13:55:52;;;;;;;9.90;9.60;;;18.10;99.90;;;;;;6232286;23;20985;-84
2023/05/16 13:58:21;;;;;;;9.95;9.65;;;17.90;99.90;;;;;;6232618;23;20195;-84
2023/05/16 14:00:51;;;;;;;10.13;9.82;;;18.00;99.90;;;;;;6232230;23;20206;-84
2023/05/16 14:03:21;;;;;;;9.90;9.60;;;18.20;99.90;;;;;;6233405;22;20253;-84
2023/05/16 14:05:50;;;;;;;9.80;9.50;;;18.30;99.90;;;;;;6232462;23;20214;-83
2023/05/16 14:08:24;;;;;;;9.75;9.45;;;18.50;99.90;;;;;;6233955;22;20226;-84
2023/05/16 14:10:52;;;;;;;9.80;9.50;;;18.70;99.90;;;;;;6236036;22;20190;-84
2023/05/16 14:13:20;;;;;;;9.70;9.40;;;18.50;99.90;;;;;;6231416;23;20225;-84
2023/05/16 14:15:51;;;;;;;9.98;9.68;;;18.30;99.90;;;;;;6232116;23;20210;-84
2023/05/16 14:18:19;;;;;;;9.77;9.48;;;18.40;99.90;;;;;;6232058;23;20198;-84
2023/05/16 14:20:49;;;;;;;9.68;9.38;;;18.40;99.90;;;;;;6232376;23;20202;-85
2023/05/16 14:23:20;;;;;;;9.60;9.30;;;18.50;99.90;;;;;;6232692;23;20197;-85
2023/05/16 14:25:47;;;;;;;10.20;9.90;;;18.60;99.90;;;;;;6232252;23;20225;-84
2023/05/16 14:28:16;;;;;;;10.18;9.88;;;18.20;99.90;;;;;;6232553;23;20198;-85
2023/05/16 14:30:46;;;;;;;9.93;9.63;;;17.80;99.90;;;;;;6232137;22;20218;-84
2023/05/16 14:33:15;;;;;;;9.90;9.60;;;17.70;99.90;;;;;;6232558;23;20210;-84
2023/05/16 14:35:48;;;;;;;9.80;9.50;;;17.60;99.90;;;;;;6234579;23;20202;-84
2023/05/16 14:38:16;;;;;;;9.85;9.55;;;17.60;99.90;;;;;;6234240;23;20199;-83
2023/05/16 14:40:47;;;;;;;9.60;9.30;;;17.70;99.90;;;;;;6232979;23;20214;-83
2023/05/16 14:43:15;;;;;;;9.95;9.65;;;17.60;99.90;;;;;;6232577;23;20195;-83
2023/05/16 14:45:43;;;;;;;9.90;9.60;;;17.20;99.90;;;;;;6232580;23;20203;-83
2023/05/16 14:48:12;;;;;;;10.10;9.80;;;16.80;99.90;;;;;;6232342;23;20202;-84
2023/05/16 14:50:41;;;;;;;10.13;9.82;;;16.50;99.90;;;;;;6232175;23;20190;-85
2023/05/16 14:53:12;;;;;;;10.20;9.90;;;16.40;99.90;;;;;;6232205;23;20223;-84
2023/05/16 14:55:41;;;;;;;9.95;9.65;;;16.30;99.90;;;;;;6232270;23;20251;-84
2023/05/16 15:00:57;;;;;;;10.00;9.70;;;16.50;99.90;;;;;;6238369;22;20179;-84
2023/05/16 15:03:26;;;;;;;9.98;9.68;;;16.40;99.90;;;;;;6233280;23;20207;-82
2023/05/16 15:05:56;;;;;;;10.10;9.80;;;16.40;99.90;;;;;;6232085;22;20290;-83
2023/05/16 15:08:25;;;;;;;9.90;9.60;;;16.30;99.90;;;;;;6233177;23;20281;-84
2023/05/16 15:10:54;;;;;;;9.50;9.20;;;16.30;99.90;;;;;;6232848;22;20191;-84
2023/05/16 15:13:36;;;;;;;9.70;9.40;;;16.20;99.90;;;;;;6232415;23;20198;-84
2023/05/16 15:16:04;;;;;;;10.45;10.15;;;16.00;99.90;;;;;;6231956;23;20191;-83
2023/05/16 15:18:32;;;;;;;10.00;9.70;;;15.90;99.90;;;;;;6231440;23;20472;-83
2023/05/16 15:21:01;;;;;;;10.25;9.95;;;15.70;99.90;;;;;;6232123;23;20222;-83
2023/05/16 15:23:31;;;;;;;10.35;10.05;;;15.60;99.90;;;;;;6232847;23;20249;-83
2023/05/16 15:26:00;;;;;;;10.25;9.95;;;15.20;99.90;;;;;;6234211;22;20277;-83
2023/05/16 15:28:40;;;;;;;9.90;9.60;;;15.10;99.90;;;;;;6233354;23;20234;-84
2023/05/16 15:31:08;;;;;;;9.83;9.53;;;14.70;99.90;;;;;;6233313;23;20206;-83
2023/05/16 15:33:36;;;;;;;9.90;9.60;;;14.70;99.90;;;;;;6231614;23;20210;-83
2023/05/16 15:36:06;;;;;;;10.18;9.88;;;14.70;99.90;;;;;;6232044;23;20214;-82
2023/05/16 15:38:36;;;;;;;10.20;9.90;;;14.80;99.90;;;;;;6231267;23;20230;-82
2023/05/16 15:41:07;;;;;;;10.30;10.00;;;14.70;99.90;;;;;;6231411;23;20281;-82
2023/05/16 15:43:38;;;;;;;10.07;9.77;;;14.70;99.90;;;;;;6231175;23;20226;-82
2023/05/16 15:48:52;;;;;;;9.90;9.60;;;14.70;99.90;;;;;;6233381;22;20263;-84
2023/05/16 15:51:20;;;;;;;9.80;9.50;;;14.60;99.90;;;;;;6236064;22;20167;-83
2023/05/16 15:53:49;;;;;;;9.63;9.33;;;14.60;99.90;;;;;;6239090;22;20183;-82
2023/05/16 15:56:20;;;;;;;9.70;9.40;;;14.50;99.90;;;;;;6239076;23;20218;-81
2023/05/16 15:58:57;;;;;;;9.90;9.60;;;14.40;99.90;;;;;;6236486;23;20202;-83
2023/05/16 16:01:25;;;;;;;9.93;9.63;;;14.20;99.90;;;;;;6235105;23;20208;-85
2023/05/16 16:03:53;;;;;;;9.97;9.67;;;14.10;99.90;;;;;;6233438;23;20258;-82
2023/05/16 16:06:24;;;;;;;9.90;9.60;;;14.00;99.90;;;;;;6232341;23;20251;-83